Flight Track Log - Related Links

Times and Time Zones

All times are in EST time to prevent confusion due to time zone crossing. See the EJM826 flight status page for this flight to view local times or setup timezone preferences in your user account.

Time Position Orientation Groundspeed Altitude Reporting Facility
EST Latitude Longitude Course Direction KTS MPH feet Rate Location/Type
Wed 08:53:23 AM 29.6603 -95.2619 North 117 135 600  Level Houston Center
Wed 08:54:31 AM 29.7203 -95.2525 North 212 244 2,900 1,962 Climbing Houston Center
Wed 08:55:07 AM 29.7619 -95.2506 North 226 260 4,000 1,869 Climbing Houston Center
Wed 08:55:32 AM 29.7917 -95.2533 355° North 280 322 4,800 2,806 Climbing Houston Center
Wed 08:56:09 AM 29.8386 -95.2581 355° North 272 313 6,900 3,403 Climbing Houston Center
Wed 08:56:39 AM 29.8786 -95.2619 355° North 266 306 8,600 2,710 Climbing Houston Center
Wed 08:57:11 AM 29.9144 -95.2658 355° North 269 310 9,700 2,182 Climbing Houston Center
Wed 08:57:34 AM 29.9486 -95.2703 354° North 280 322 10,600 2,032 Climbing Houston Center
Wed 08:58:13 AM 29.9922 -95.2631 North 287 330 11,800 1,782 Climbing Houston Center
Wed 08:59:15 AM 30.0717 -95.2392 15° North 296 341 13,600 1,839 Climbing Houston Center
Wed 09:00:17 AM 30.1461 -95.1828 33° Northeast 317 365 15,600 1,839 Climbing Houston Center
Wed 09:01:19 AM 30.2256 -95.1292 30° Northeast 327 376 17,400 1,694 Climbing Houston Center
Wed 09:02:21 AM 30.3219 -95.0622 31° Northeast 336 387 19,100 1,548 Climbing Houston Center
Wed 09:03:23 AM 30.4069 -95.0047 30° Northeast 350 403 20,600 1,548 Climbing Houston Center
Wed 09:04:25 AM 30.4928 -94.9383 34° Northeast 363 418 22,300 1,694 Climbing Houston Center
Wed 09:05:27 AM 30.5775 -94.8725 34° Northeast 367 422 24,100 1,548 Climbing Houston Center
Wed 09:06:29 AM 30.6619 -94.8086 33° Northeast 364 419 25,500 1,306 Climbing Houston Center
Wed 09:07:31 AM 30.7489 -94.7408 34° Northeast 374 430 26,800 1,355 Climbing Houston Center
Wed 09:08:33 AM 30.8556 -94.6594 33° Northeast 380 437 28,300 1,258 Climbing Houston Center
Wed 09:09:35 AM 30.9456 -94.5889 34° Northeast 388 447 29,400 1,056 Climbing Houston Center
Wed 09:10:38 AM 31.0369 -94.5172 34° Northeast 396 456 30,500 1,104 Climbing Houston Center
Wed 09:11:40 AM 31.1297 -94.4456 33° Northeast 403 464 31,700 1,258 Climbing Houston Center
Wed 09:12:42 AM 31.2433 -94.3578 33° Northeast 411 473 33,100 1,355 Climbing Houston Center
Wed 09:13:44 AM 31.3378 -94.2833 34° Northeast 411 473 34,500 1,306 Climbing Houston Center
Wed 09:14:46 AM 31.4303 -94.2114 34° Northeast 405 466 35,800 1,306 Climbing Houston Center
Wed 09:15:48 AM 31.5225 -94.1386 34° Northeast 401 461 37,200 1,152 Climbing Houston Center
Wed 09:16:51 AM 31.6144 -94.0667 34° Northeast 399 459 38,200 912 Climbing Houston Center
Wed 09:17:53 AM 31.7050 -93.9942 34° Northeast 395 455 39,100 919 Climbing Houston Center
Wed 09:18:55 AM 31.7925 -93.8686 51° Northeast 414 476 40,100 871 Climbing Houston Center
Wed 09:19:57 AM 31.8644 -93.7625 51° Northeast 414 476 40,900 435 Climbing Houston Center
Wed 09:20:59 AM 31.9347 -93.6556 52° Northeast 414 476 41,000 48 Climbing Houston Center
Wed 09:22:01 AM 32.0097 -93.5447 51° Northeast 424 488 41,000  Level Houston Center
Wed 09:23:04 AM 32.0853 -93.4300 52° Northeast 435 501 41,000  Level Houston Center
Wed 09:24:06 AM 32.1619 -93.3136 52° Northeast 443 510 41,000  Level Houston Center
Wed 09:25:08 AM 32.2556 -93.1714 52° Northeast 452 520 41,000  Level Houston Center
Wed 09:26:10 AM 32.3328 -93.0506 53° Northeast 456 525 41,000  Level Fort Worth Center
Wed 09:27:12 AM 32.4114 -92.9319 52° Northeast 456 525 41,000  Level Fort Worth Center
Wed 09:28:14 AM 32.4925 -92.8047 53° Northeast 452 520 41,000  Level Fort Worth Center
Wed 09:29:16 AM 32.5683 -92.6875 52° Northeast 452 520 41,000  Level Fort Worth Center
Wed 09:30:18 AM 32.6453 -92.5689 52° Northeast 454 522 41,000  Level Fort Worth Center
Wed 09:31:20 AM 32.7192 -92.4497 54° Northeast 451 519 41,000  Level Fort Worth Center
Wed 09:32:22 AM 32.7967 -92.3311 52° Northeast 454 522 41,000  Level Fort Worth Center
Wed 09:33:25 AM 32.8872 -92.1878 53° Northeast 452 520 41,000  Level Fort Worth Center
Wed 09:34:16 AM 32.9467 -92.0931 53° Northeast 453 521 41,000  Level Memphis Center
Wed 09:35:18 AM 33.0253 -91.9719 52° Northeast 454 522 41,000  Level Memphis Center
Wed 09:36:20 AM 33.1011 -91.8522 53° Northeast 455 524 41,000  Level Memphis Center
Wed 09:37:22 AM 33.1767 -91.7311 53° Northeast 456 525 41,000  Level Memphis Center
Wed 09:38:24 AM 33.2533 -91.6094 53° Northeast 459 528 41,000  Level Memphis Center
Wed 09:39:26 AM 33.3308 -91.4878 53° Northeast 461 531 41,000  Level Memphis Center
Wed 09:40:28 AM 33.4217 -91.3422 53° Northeast 458 527 41,000  Level Memphis Center
Wed 09:41:30 AM 33.4975 -91.2203 53° Northeast 458 527 41,000  Level Memphis Center
Wed 09:42:32 AM 33.5719 -91.0972 54° Northeast 458 527 41,000  Level Memphis Center
Wed 09:43:34 AM 33.6483 -90.9753 53° Northeast 457 526 41,000  Level Memphis Center
Wed 09:44:36 AM 33.7242 -90.8517 54° Northeast 460 529 41,000  Level Memphis Center
Wed 09:45:38 AM 33.8144 -90.7042 54° Northeast 458 527 41,000  Level Memphis Center
Wed 09:46:40 AM 33.8947 -90.5708 54° Northeast 461 531 41,000  Level Memphis Center
Wed 09:47:42 AM 33.9717 -90.4456 53° Northeast 462 532 41,000  Level Memphis Center
Wed 09:48:44 AM 34.0481 -90.3197 54° Northeast 462 532 41,000  Level Memphis Center
Wed 09:49:46 AM 34.1247 -90.1933 54° Northeast 463 533 41,000  Level Memphis Center
Wed 09:50:48 AM 34.2006 -90.0658 54° Northeast 464 534 41,000  Level Memphis Center
Wed 09:51:50 AM 34.2908 -89.9600 44° Northeast 450 518 41,000  Level Memphis Center
Wed 09:52:53 AM 34.4028 -89.8469 40° Northeast 446 513 41,000  Level Memphis Center
Wed 09:53:55 AM 34.4989 -89.7511 39° Northeast 445 512 41,000  Level Memphis Center
Wed 09:54:57 AM 34.5936 -89.6550 40° Northeast 444 511 41,000  Level Memphis Center
Wed 09:55:59 AM 34.6872 -89.5589 40° Northeast 443 510 41,000  Level Memphis Center
Wed 09:57:01 AM 34.7658 -89.4383 52° Northeast 459 528 41,000  Level Memphis Center
Wed 09:58:03 AM 34.8464 -89.2844 57° Northeast 461 531 41,000  Level Memphis Center
Wed 09:59:05 AM 34.9156 -89.1492 58° Northeast 466 536 41,000  Level Memphis Center
Wed 10:00:08 AM 34.9850 -89.0169 57° Northeast 463 533 41,000  Level Memphis Center
Wed 10:01:10 AM 35.0539 -88.8822 58° Northeast 464 534 41,000  Level Memphis Center
Wed 10:02:12 AM 35.1233 -88.7467 58° Northeast 466 536 41,000  Level Memphis Center
Wed 10:03:14 AM 35.1917 -88.6097 59° Northeast 467 537 41,000  Level Memphis Center
Wed 10:04:16 AM 35.2600 -88.4750 58° Northeast 466 536 41,000  Level Memphis Center
Wed 10:05:19 AM 35.3414 -88.3119 59° Northeast 466 536 41,000  Level Memphis Center
Wed 10:06:21 AM 35.4083 -88.1803 58° Northeast 465 535 41,000  Level Memphis Center
Wed 10:07:23 AM 35.4744 -88.0469 59° Northeast 464 534 41,000  Level Memphis Center
Wed 10:08:25 AM 35.5422 -87.9103 59° Northeast 465 535 41,000  Level Memphis Center
Wed 10:09:27 AM 35.6100 -87.7719 59° Northeast 467 537 41,000  Level Memphis Center
Wed 10:10:29 AM 35.6892 -87.6117 59° Northeast 467 537 41,000  Level Memphis Center
Wed 10:11:31 AM 35.7569 -87.4733 59° Northeast 467 537 41,000  Level Memphis Center
Wed 10:12:33 AM 35.8244 -87.3344 59° Northeast 469 540 41,000  Level Memphis Center
Wed 10:13:35 AM 35.8911 -87.1961 59° Northeast 467 537 41,000  Level Memphis Center
Wed 10:14:37 AM 35.9592 -87.0564 59° Northeast 469 540 41,000  Level Memphis Center
Wed 10:15:39 AM 36.0267 -86.9158 59° Northeast 474 545 41,000  Level Memphis Center
Wed 10:16:41 AM 36.1056 -86.7508 59° Northeast 477 549 41,000  Level Memphis Center
Wed 10:17:43 AM 36.1639 -86.6031 64° Northeast 481 554 41,000  Level Memphis Center
Wed 10:18:45 AM 36.2128 -86.4461 69° East 487 560 41,000  Level Memphis Center
Wed 10:19:47 AM 36.2647 -86.2883 68° East 491 565 41,000  Level Memphis Center
Wed 10:20:49 AM 36.3153 -86.1311 68° East 491 565 41,000  Level Memphis Center
Wed 10:21:51 AM 36.3669 -85.9714 68° East 493 567 41,000  Level Memphis Center
Wed 10:22:53 AM 36.4175 -85.8108 69° East 496 571 41,000  Level Memphis Center
Wed 10:23:55 AM 36.4786 -85.6172 69° East 498 573 41,000  Level Memphis Center
Wed 10:24:57 AM 36.5300 -85.4569 68° East 498 573 41,000  Level Memphis Center
Wed 10:26:00 AM 36.5794 -85.2964 69° East 496 571 41,000  Level Memphis Center
Wed 10:27:02 AM 36.6300 -85.1333 69° East 500 575 41,000  Level Memphis Center
Wed 10:28:12 AM 36.6900 -84.9356 69° East 500 575 41,000  Level Indianapolis Center
Wed 10:29:14 AM 36.7397 -84.7703 69° East 506 582 41,000  Level Indianapolis Center
Wed 10:30:16 AM 36.7894 -84.6061 69° East 505 581 41,000  Level Indianapolis Center
Wed 10:31:18 AM 36.8392 -84.4447 69° East 497 572 41,000  Level Indianapolis Center
Wed 10:32:20 AM 36.8875 -84.2847 69° East 493 567 41,000  Level Indianapolis Center
Wed 10:33:22 AM 36.9439 -84.0969 69° East 494 568 41,000  Level Indianapolis Center
Wed 10:34:24 AM 36.9928 -83.9342 69° East 498 573 41,000  Level Indianapolis Center
Wed 10:35:26 AM 37.0414 -83.7719 69° East 498 573 41,000  Level Indianapolis Center
Wed 10:36:28 AM 37.0897 -83.6064 70° East 504 580 41,000  Level Indianapolis Center
Wed 10:37:30 AM 37.1383 -83.4411 70° East 505 581 41,000  Level Indianapolis Center
Wed 10:38:32 AM 37.1856 -83.2742 70° East 503 579 41,000  Level Indianapolis Center
Wed 10:39:34 AM 37.2411 -83.0803 70° East 503 579 41,000  Level Indianapolis Center
Wed 10:40:36 AM 37.2886 -82.9147 70° East 500 575 41,000  Level Indianapolis Center
Wed 10:41:38 AM 37.3358 -82.7506 70° East 497 572 41,000  Level Indianapolis Center
Wed 10:42:41 AM 37.3822 -82.5872 70° East 494 568 41,000  Level Indianapolis Center
Wed 10:43:43 AM 37.4275 -82.4225 71° East 495 570 41,000  Level Indianapolis Center
Wed 10:44:45 AM 37.4747 -82.2592 70° East 495 570 41,000  Level Indianapolis Center
Wed 10:45:47 AM 37.5194 -82.0950 71° East 496 571 41,000  Level Indianapolis Center
Wed 10:46:49 AM 37.5708 -81.9056 71° East 490 564 41,000  Level Indianapolis Center
Wed 10:47:51 AM 37.6153 -81.7428 71° East 490 564 41,000  Level Indianapolis Center
Wed 10:48:53 AM 37.6600 -81.5817 71° East 487 560 41,000  Level Indianapolis Center
Wed 10:49:55 AM 37.7033 -81.4156 72° East 486 559 41,000  Level Indianapolis Center
Wed 10:50:57 AM 37.7456 -81.2575 71° East 485 558 41,000  Level Indianapolis Center
Wed 10:51:59 AM 37.7989 -81.0692 70° East 485 558 41,000 -1,113 Level Indianapolis Center
Wed 10:53:01 AM 37.8508 -80.9267 65° Northeast 488 562 38,700 -1,872 Descending Indianapolis Center
Wed 10:54:04 AM 37.9083 -80.7636 66° East 506 582 37,100 -823 Descending Indianapolis Center
Wed 10:55:05 AM 37.9781 -80.6117 60° Northeast 504 580 37,000 -54 Descending Indianapolis Center
Wed 10:55:55 AM 38.0422 -80.4828 58° Northeast 497 572 37,000  Level Washington Center
Wed 10:56:55 AM 38.1197 -80.3164 59° Northeast 502 578 37,000 -900 Level Washington Center
Wed 10:57:55 AM 38.1903 -80.1703 58° Northeast 491 565 35,200 -1,934 Descending Washington Center
Wed 10:58:56 AM 38.2603 -80.0264 58° Northeast 480 552 33,100 -2,218 Descending Washington Center
Wed 10:59:54 AM 38.3258 -79.8822 60° Northeast 475 547 30,800 -2,390 Descending Washington Center
Wed 11:00:54 AM 38.3914 -79.7403 59° Northeast 470 541 28,400 -2,380 Descending Washington Center
Wed 11:01:55 AM 38.4547 -79.5978 60° Northeast 464 534 26,000 -2,115 Descending Washington Center
Wed 11:02:56 AM 38.5047 -79.4733 63° Northeast 451 519 24,100 -1,008 Descending Washington Center
Wed 11:03:54 AM 38.5367 -79.3208 75° East 444 511 24,000 -101 Descending Washington Center
Wed 11:04:55 AM 38.5664 -79.1606 77° East 444 511 23,900 -1,190 Descending Washington Center
Wed 11:05:55 AM 38.5961 -79.0025 76° East 450 518 21,600 -2,331 Descending Washington Center
Wed 11:06:56 AM 38.6211 -78.8522 78° East 444 511 19,200 -2,441 Descending Washington Center
Wed 11:07:53 AM 38.6517 -78.7181 74° East 418 481 16,800 -2,593 Descending Washington Center
Wed 11:08:54 AM 38.6822 -78.5861 73° East 398 458 14,100 -2,705 Descending Washington Center
Wed 11:09:55 AM 38.7125 -78.4569 73° East 375 432 11,300 -1,623 Descending Washington Center
Wed 11:10:56 AM 38.7483 -78.3519 66° East 350 403 10,800 -763 Descending Washington Center
Wed 11:11:53 AM 38.8042 -78.2769 46° Northeast 307 353 9,800 -966 Descending Washington Center
Wed 11:12:54 AM 38.8561 -78.1961 50° Northeast 295 339 8,900 -1,180 Descending Washington Center
Wed 11:13:55 AM 38.8811 -78.0931 73° East 290 334 7,400 -1,190 Descending Washington Center
Wed 11:14:55 AM 38.9061 -77.9950 72° East 290 334 6,500 -744 Descending Washington Center
Wed 11:15:56 AM 38.9286 -77.9053 72° East 279 321 5,900 -298 Descending Washington Center
Wed 11:16:56 AM 38.9556 -77.8019 71° East 279 321 5,900 33 Level Washington Center
Wed 11:19:00 AM 38.9333 -77.6167 99° East 273 314 6,000  Climbing Potomac TRACON
Wed 11:19:55 AM 38.8833 -77.5833 153° Southeast 257 296 5,900  Descending Potomac TRACON
Wed 11:20:55 AM 38.8167 -77.5833 180° South 215 247 6,000 -200 Climbing Potomac TRACON
Wed 11:21:55 AM 38.7500 -77.5833 180° South 214 246 5,500 -600 Descending Potomac TRACON
Wed 11:22:55 AM 38.7000 -77.5667 165° South 201 231 4,800 -744 Descending Potomac TRACON
Wed 11:23:56 AM 38.6833 -77.5000 108° East 196 226 4,000 -397 Descending Potomac TRACON
Wed 11:24:56 AM 38.7000 -77.4500 67° East 209 241 4,000  Level Potomac TRACON
Wed 11:25:50 AM 38.7500 -77.4667 345° North 172 198 4,000 -211 Level Potomac TRACON
Wed 11:26:50 AM 38.7833 -77.4667 360° North 131 151 3,600 -550 Descending Potomac TRACON
Wed 11:27:50 AM 38.8167 -77.4667 360° North 138 159 2,900 -750 Descending Potomac TRACON
Wed 11:28:50 AM 38.8667 -77.4667 360° North 134 154 2,100 -850 Descending Potomac TRACON
Wed 11:29:50 AM 38.9000 -77.4667 360° North 130 150 1,200 -800 Descending Potomac TRACON
Wed 11:30:50 AM 38.9333 -77.4667 360° North 127 146 500 -700 Descending Potomac TRACON
Wed 11:32:00 AM 38.9380 -77.4523 159° South  Level FlightAware Approximate
Wed 11:39:00 AM 38.9333 -77.4500 159° South  Level FlightAware Approximate
Wed 11:40:00 AM 38.9474 -77.4599 159° South  Level Estimated
Wed 11:41:00 AM 38.9474 -77.4599 159° South  Level Estimated
Wed 11:42:00 AM 38.9474 -77.4599 159° South  Level Estimated
Wed 11:43:00 AM 38.9474 -77.4599 159° South  Level Estimated
Wed 11:44:00 AM 38.9474 -77.4599 159° South  Level Estimated
Wed 11:45:00 AM 38.9474 -77.4599 159° South  Level Estimated
Wed 11:46:00 AM 38.9474 -77.4599 159° South  Level Estimated
Wed 11:47:00 AM 38.9474 -77.4599 159° South  Level Estimated
Wed 11:48:00 AM 38.9474 -77.4599 159° South  Level Estimated
Wed 11:49:00 AM 38.9474 -77.4599 159° South  Level Estimated
Wed 11:50:00 AM 38.9474 -77.4599 159° South  Level Estimated
Wed 11:51:00 AM 38.9474 -77.4599 159° South  Level Estimated
Wed 11:52:00 AM 38.9474 -77.4599 159° South  Level Estimated
Wed 11:53:00 AM 38.9474 -77.4599 159° South  Level Estimated

Login

Don't have an account? Register now (free) for customized features, flight alerts, and more!